Kendallville, Indiana
Current Conditions -  °F | °C
As of 1:15 AM on Monday 26 Jan 2015 (Local Time) from KGWB Reporting Station
Overcast Overcast  
Wind Chill:   Ceiling: 4700
Heat Index: 21°   Visibility: 10mi
Dew Point: 10°   Wind: 15mph
Humidity: 63%   Direction: 30°NNE
Pressure: 29.92"   Gusts: 18mph
Location:  41.44°N, 85.26°W
Report Text: KGWB 260615Z AUTO 03013G16KT 10SM SCT037 OVC047 M06/M12 A2992 RMK AO2
Loading
Personal Weather Stations






























Interactive Weather Map New forecast layout! Learn more

10-Day Weather Forecast

Advertisements
Track Severe Weather on mobile